sensor_id;sensor_type;location;lat;lon;timestamp;P1;durP1;ratioP1;P2;durP2;ratioP2
44000;SDS011;29660;42.892;24.710;2022-11-20T00:00:20;23.17;;;15.93;;
44000;SDS011;29660;42.892;24.710;2022-11-20T00:05:22;26.35;;;15.57;;
44000;SDS011;29660;42.892;24.710;2022-11-20T00:10:24;32.80;;;20.90;;
44000;SDS011;29660;42.892;24.710;2022-11-20T00:15:26;32.65;;;20.67;;
44000;SDS011;29660;42.892;24.710;2022-11-20T00:20:27;32.80;;;21.45;;
44000;SDS011;29660;42.892;24.710;2022-11-20T00:25:29;30.48;;;21.05;;
44000;SDS011;29660;42.892;24.710;2022-11-20T00:30:31;28.95;;;20.30;;
44000;SDS011;29660;42.892;24.710;2022-11-20T00:35:33;35.60;;;23.77;;
44000;SDS011;29660;42.892;24.710;2022-11-20T00:40:35;32.80;;;23.85;;
44000;SDS011;29660;42.892;24.710;2022-11-20T00:45:37;32.45;;;24.77;;
44000;SDS011;29660;42.892;24.710;2022-11-20T00:50:40;32.25;;;24.30;;
44000;SDS011;29660;42.892;24.710;2022-11-20T00:55:42;49.40;;;33.38;;
44000;SDS011;29660;42.892;24.710;2022-11-20T01:00:44;36.35;;;24.88;;
44000;SDS011;29660;42.892;24.710;2022-11-20T01:05:46;29.77;;;22.20;;
44000;SDS011;29660;42.892;24.710;2022-11-20T01:10:48;34.08;;;25.27;;
44000;SDS011;29660;42.892;24.710;2022-11-20T01:15:50;35.38;;;24.10;;
44000;SDS011;29660;42.892;24.710;2022-11-20T01:20:52;42.13;;;27.98;;
44000;SDS011;29660;42.892;24.710;2022-11-20T01:25:54;39.35;;;25.48;;
44000;SDS011;29660;42.892;24.710;2022-11-20T01:30:56;35.05;;;24.45;;
44000;SDS011;29660;42.892;24.710;2022-11-20T01:36:05;34.17;;;22.73;;
44000;SDS011;29660;42.892;24.710;2022-11-20T01:41:08;31.52;;;22.52;;
44000;SDS011;29660;42.892;24.710;2022-11-20T01:56:51;31.85;;;22.05;;
44000;SDS011;29660;42.892;24.710;2022-11-20T02:01:58;30.13;;;22.35;;
44000;SDS011;29660;42.892;24.710;2022-11-20T02:07:01;33.38;;;22.85;;
44000;SDS011;29660;42.892;24.710;2022-11-20T02:12:06;29.45;;;23.17;;
44000;SDS011;29660;42.892;24.710;2022-11-20T02:17:28;33.30;;;22.90;;
44000;SDS011;29660;42.892;24.710;2022-11-20T02:22:32;33.97;;;26.10;;
44000;SDS011;29660;42.892;24.710;2022-11-20T02:27:40;38.83;;;27.83;;
44000;SDS011;29660;42.892;24.710;2022-11-20T02:32:42;31.33;;;23.98;;
44000;SDS011;29660;42.892;24.710;2022-11-20T02:37:48;33.22;;;23.38;;
44000;SDS011;29660;42.892;24.710;2022-11-20T02:42:54;38.80;;;28.33;;
44000;SDS011;29660;42.892;24.710;2022-11-20T02:47:56;51.78;;;36.50;;
44000;SDS011;29660;42.892;24.710;2022-11-20T02:52:58;40.47;;;28.70;;
44000;SDS011;29660;42.892;24.710;2022-11-20T02:58:00;35.40;;;27.48;;
44000;SDS011;29660;42.892;24.710;2022-11-20T03:03:02;34.28;;;24.98;;
44000;SDS011;29660;42.892;24.710;2022-11-20T03:08:04;32.75;;;22.70;;
44000;SDS011;29660;42.892;24.710;2022-11-20T03:13:06;27.80;;;19.80;;
44000;SDS011;29660;42.892;24.710;2022-11-20T03:18:07;31.98;;;21.60;;
44000;SDS011;29660;42.892;24.710;2022-11-20T03:23:09;27.48;;;18.65;;
44000;SDS011;29660;42.892;24.710;2022-11-20T03:28:11;24.80;;;17.75;;
44000;SDS011;29660;42.892;24.710;2022-11-20T03:33:13;29.88;;;21.90;;
44000;SDS011;29660;42.892;24.710;2022-11-20T03:38:15;25.73;;;20.13;;
44000;SDS011;29660;42.892;24.710;2022-11-20T03:43:17;24.13;;;17.02;;
44000;SDS011;29660;42.892;24.710;2022-11-20T03:48:20;26.42;;;21.63;;
44000;SDS011;29660;42.892;24.710;2022-11-20T03:53:22;25.77;;;19.90;;
44000;SDS011;29660;42.892;24.710;2022-11-20T03:58:24;24.25;;;19.38;;
44000;SDS011;29660;42.892;24.710;2022-11-20T04:03:25;29.05;;;19.00;;
44000;SDS011;29660;42.892;24.710;2022-11-20T04:08:28;28.80;;;21.27;;
44000;SDS011;29660;42.892;24.710;2022-11-20T04:13:30;29.05;;;19.80;;
44000;SDS011;29660;42.892;24.710;2022-11-20T04:18:32;23.55;;;18.55;;
44000;SDS011;29660;42.892;24.710;2022-11-20T04:23:34;30.42;;;24.95;;
44000;SDS011;29660;42.892;24.710;2022-11-20T04:28:37;27.33;;;22.42;;
44000;SDS011;29660;42.892;24.710;2022-11-20T04:33:40;28.65;;;19.45;;
44000;SDS011;29660;42.892;24.710;2022-11-20T04:38:42;25.58;;;17.95;;
44000;SDS011;29660;42.892;24.710;2022-11-20T04:43:51;25.13;;;18.02;;
44000;SDS011;29660;42.892;24.710;2022-11-20T04:49:00;19.20;;;14.75;;
44000;SDS011;29660;42.892;24.710;2022-11-20T04:54:02;22.88;;;15.48;;
44000;SDS011;29660;42.892;24.710;2022-11-20T04:59:04;19.42;;;13.85;;
44000;SDS011;29660;42.892;24.710;2022-11-20T05:04:06;22.13;;;17.63;;
44000;SDS011;29660;42.892;24.710;2022-11-20T05:09:08;24.13;;;19.27;;
44000;SDS011;29660;42.892;24.710;2022-11-20T05:14:10;30.67;;;23.65;;
44000;SDS011;29660;42.892;24.710;2022-11-20T05:19:12;45.88;;;33.13;;
44000;SDS011;29660;42.892;24.710;2022-11-20T05:24:14;48.83;;;31.95;;
44000;SDS011;29660;42.892;24.710;2022-11-20T05:29:16;20.65;;;12.98;;
44000;SDS011;29660;42.892;24.710;2022-11-20T05:34:18;19.30;;;13.02;;
44000;SDS011;29660;42.892;24.710;2022-11-20T05:39:20;20.77;;;15.48;;
44000;SDS011;29660;42.892;24.710;2022-11-20T05:44:22;19.17;;;13.93;;
44000;SDS011;29660;42.892;24.710;2022-11-20T05:49:24;18.15;;;12.35;;
44000;SDS011;29660;42.892;24.710;2022-11-20T05:54:26;19.75;;;14.10;;
44000;SDS011;29660;42.892;24.710;2022-11-20T05:59:28;15.02;;;12.27;;
44000;SDS011;29660;42.892;24.710;2022-11-20T06:04:30;16.73;;;14.73;;
44000;SDS011;29660;42.892;24.710;2022-11-20T06:09:32;16.38;;;13.82;;
44000;SDS011;29660;42.892;24.710;2022-11-20T06:14:34;19.05;;;13.77;;
44000;SDS011;29660;42.892;24.710;2022-11-20T06:19:36;21.33;;;13.40;;
44000;SDS011;29660;42.892;24.710;2022-11-20T06:24:38;20.52;;;15.65;;
44000;SDS011;29660;42.892;24.710;2022-11-20T06:29:40;15.60;;;12.10;;
44000;SDS011;29660;42.892;24.710;2022-11-20T06:34:42;21.17;;;16.63;;
44000;SDS011;29660;42.892;24.710;2022-11-20T06:39:44;20.33;;;14.90;;
44000;SDS011;29660;42.892;24.710;2022-11-20T06:44:46;19.27;;;15.32;;
44000;SDS011;29660;42.892;24.710;2022-11-20T06:49:48;19.42;;;15.18;;
44000;SDS011;29660;42.892;24.710;2022-11-20T06:54:50;19.50;;;15.70;;
44000;SDS011;29660;42.892;24.710;2022-11-20T06:59:52;24.55;;;18.70;;
44000;SDS011;29660;42.892;24.710;2022-11-20T07:04:54;17.88;;;14.85;;
44000;SDS011;29660;42.892;24.710;2022-11-20T07:09:56;19.02;;;15.07;;
44000;SDS011;29660;42.892;24.710;2022-11-20T07:14:57;19.38;;;16.58;;
44000;SDS011;29660;42.892;24.710;2022-11-20T07:20:00;22.33;;;17.67;;
44000;SDS011;29660;42.892;24.710;2022-11-20T07:25:02;24.88;;;20.40;;
44000;SDS011;29660;42.892;24.710;2022-11-20T07:30:05;21.20;;;16.60;;
44000;SDS011;29660;42.892;24.710;2022-11-20T07:35:08;24.27;;;19.77;;
44000;SDS011;29660;42.892;24.710;2022-11-20T07:40:10;20.55;;;18.15;;
44000;SDS011;29660;42.892;24.710;2022-11-20T07:45:13;15.15;;;13.63;;
44000;SDS011;29660;42.892;24.710;2022-11-20T07:50:15;21.10;;;17.00;;
44000;SDS011;29660;42.892;24.710;2022-11-20T07:55:18;48.40;;;26.35;;
44000;SDS011;29660;42.892;24.710;2022-11-20T08:00:20;14.30;;;11.63;;
44000;SDS011;29660;42.892;24.710;2022-11-20T08:05:22;32.03;;;22.77;;
44000;SDS011;29660;42.892;24.710;2022-11-20T08:10:25;31.20;;;15.02;;
44000;SDS011;29660;42.892;24.710;2022-11-20T08:15:27;45.33;;;29.25;;
44000;SDS011;29660;42.892;24.710;2022-11-20T08:20:29;14.73;;;11.70;;
44000;SDS011;29660;42.892;24.710;2022-11-20T08:25:31;25.02;;;18.48;;
44000;SDS011;29660;42.892;24.710;2022-11-20T08:30:35;31.08;;;18.40;;
44000;SDS011;29660;42.892;24.710;2022-11-20T08:35:38;33.00;;;18.92;;
44000;SDS011;29660;42.892;24.710;2022-11-20T08:40:40;20.90;;;16.00;;
44000;SDS011;29660;42.892;24.710;2022-11-20T08:45:42;26.13;;;17.25;;
44000;SDS011;29660;42.892;24.710;2022-11-20T09:13:16;32.30;;;16.95;;
44000;SDS011;29660;42.892;24.710;2022-11-20T09:18:18;26.73;;;17.30;;
44000;SDS011;29660;42.892;24.710;2022-11-20T09:23:20;13.38;;;11.95;;
44000;SDS011;29660;42.892;24.710;2022-11-20T09:28:22;15.10;;;13.50;;
44000;SDS011;29660;42.892;24.710;2022-11-20T09:33:24;11.93;;;10.70;;
44000;SDS011;29660;42.892;24.710;2022-11-20T09:38:26;16.25;;;14.48;;
44000;SDS011;29660;42.892;24.710;2022-11-20T09:43:53;11.52;;;10.07;;
44000;SDS011;29660;42.892;24.710;2022-11-20T09:55:00;10.60;;;9.50;;
44000;SDS011;29660;42.892;24.710;2022-11-20T10:00:05;15.52;;;13.82;;
44000;SDS011;29660;42.892;24.710;2022-11-20T10:10:35;30.55;;;27.42;;
44000;SDS011;29660;42.892;24.710;2022-11-20T10:16:09;16.88;;;15.15;;
44000;SDS011;29660;42.892;24.710;2022-11-20T10:32:00;24.13;;;16.30;;
44000;SDS011;29660;42.892;24.710;2022-11-20T10:37:08;36.22;;;25.02;;
44000;SDS011;29660;42.892;24.710;2022-11-20T10:42:16;14.48;;;10.77;;
44000;SDS011;29660;42.892;24.710;2022-11-20T10:47:31;14.02;;;11.80;;
44000;SDS011;29660;42.892;24.710;2022-11-20T10:58:22;16.52;;;14.38;;
44000;SDS011;29660;42.892;24.710;2022-11-20T11:03:28;16.27;;;14.52;;
44000;SDS011;29660;42.892;24.710;2022-11-20T11:08:34;27.58;;;12.07;;
44000;SDS011;29660;42.892;24.710;2022-11-20T11:13:40;69.18;;;54.10;;
44000;SDS011;29660;42.892;24.710;2022-11-20T11:18:42;39.25;;;24.70;;
44000;SDS011;29660;42.892;24.710;2022-11-20T11:23:44;57.20;;;33.55;;
44000;SDS011;29660;42.892;24.710;2022-11-20T11:28:56;15.43;;;12.45;;
44000;SDS011;29660;42.892;24.710;2022-11-20T11:34:35;29.52;;;24.95;;
44000;SDS011;29660;42.892;24.710;2022-11-20T11:39:30;12.38;;;11.10;;
44000;SDS011;29660;42.892;24.710;2022-11-20T11:44:34;22.23;;;14.00;;
44000;SDS011;29660;42.892;24.710;2022-11-20T11:55:14;17.15;;;13.35;;
44000;SDS011;29660;42.892;24.710;2022-11-20T12:00:21;25.30;;;14.48;;
44000;SDS011;29660;42.892;24.710;2022-11-20T12:05:25;21.50;;;16.88;;
44000;SDS011;29660;42.892;24.710;2022-11-20T12:15:34;14.32;;;11.25;;
44000;SDS011;29660;42.892;24.710;2022-11-20T12:20:39;18.90;;;16.75;;
44000;SDS011;29660;42.892;24.710;2022-11-20T12:25:48;12.23;;;10.35;;
44000;SDS011;29660;42.892;24.710;2022-11-20T12:36:32;15.88;;;14.27;;
44000;SDS011;29660;42.892;24.710;2022-11-20T12:41:43;12.77;;;11.43;;
44000;SDS011;29660;42.892;24.710;2022-11-20T12:47:31;21.60;;;16.65;;
44000;SDS011;29660;42.892;24.710;2022-11-20T13:08:40;31.33;;;19.48;;
44000;SDS011;29660;42.892;24.710;2022-11-20T13:19:03;19.90;;;15.93;;
44000;SDS011;29660;42.892;24.710;2022-11-20T13:24:29;20.83;;;18.63;;
44000;SDS011;29660;42.892;24.710;2022-11-20T13:29:32;15.23;;;12.55;;
44000;SDS011;29660;42.892;24.710;2022-11-20T13:34:36;29.90;;;20.98;;
44000;SDS011;29660;42.892;24.710;2022-11-20T13:39:38;20.05;;;13.38;;
44000;SDS011;29660;42.892;24.710;2022-11-20T13:44:45;12.23;;;10.95;;
44000;SDS011;29660;42.892;24.710;2022-11-20T13:49:52;19.65;;;15.82;;
44000;SDS011;29660;42.892;24.710;2022-11-20T14:00:27;54.33;;;44.22;;
44000;SDS011;29660;42.892;24.710;2022-11-20T14:05:30;63.83;;;54.03;;
44000;SDS011;29660;42.892;24.710;2022-11-20T14:10:36;44.60;;;37.10;;
44000;SDS011;29660;42.892;24.710;2022-11-20T14:15:40;43.78;;;36.33;;
44000;SDS011;29660;42.892;24.710;2022-11-20T14:20:45;61.25;;;54.75;;
44000;SDS011;29660;42.892;24.710;2022-11-20T14:25:48;59.97;;;53.13;;
44000;SDS011;29660;42.892;24.710;2022-11-20T14:30:50;64.78;;;56.80;;
44000;SDS011;29660;42.892;24.710;2022-11-20T14:35:52;62.05;;;55.25;;
44000;SDS011;29660;42.892;24.710;2022-11-20T14:41:06;69.65;;;61.90;;
44000;SDS011;29660;42.892;24.710;2022-11-20T14:46:18;23.73;;;20.95;;
44000;SDS011;29660;42.892;24.710;2022-11-20T14:51:34;23.73;;;20.65;;
44000;SDS011;29660;42.892;24.710;2022-11-20T14:56:57;48.00;;;41.08;;
44000;SDS011;29660;42.892;24.710;2022-11-20T15:02:04;60.72;;;50.15;;
44000;SDS011;29660;42.892;24.710;2022-11-20T15:07:10;60.22;;;52.30;;
44000;SDS011;29660;42.892;24.710;2022-11-20T15:12:15;64.03;;;55.92;;
44000;SDS011;29660;42.892;24.710;2022-11-20T15:17:19;93.90;;;81.25;;
44000;SDS011;29660;42.892;24.710;2022-11-20T15:22:21;32.35;;;26.60;;
44000;SDS011;29660;42.892;24.710;2022-11-20T15:27:23;28.95;;;25.23;;
44000;SDS011;29660;42.892;24.710;2022-11-20T15:32:25;21.42;;;18.27;;
44000;SDS011;29660;42.892;24.710;2022-11-20T15:37:27;33.05;;;26.38;;
44000;SDS011;29660;42.892;24.710;2022-11-20T15:42:30;33.75;;;24.35;;
44000;SDS011;29660;42.892;24.710;2022-11-20T15:47:33;29.17;;;23.23;;
44000;SDS011;29660;42.892;24.710;2022-11-20T15:52:36;44.42;;;36.22;;
44000;SDS011;29660;42.892;24.710;2022-11-20T15:57:42;28.85;;;24.52;;
44000;SDS011;29660;42.892;24.710;2022-11-20T16:02:44;40.35;;;32.85;;
44000;SDS011;29660;42.892;24.710;2022-11-20T16:07:46;62.15;;;49.92;;
44000;SDS011;29660;42.892;24.710;2022-11-20T16:12:48;54.97;;;41.83;;
44000;SDS011;29660;42.892;24.710;2022-11-20T16:18:08;35.53;;;30.50;;
44000;SDS011;29660;42.892;24.710;2022-11-20T16:23:12;55.25;;;49.10;;
44000;SDS011;29660;42.892;24.710;2022-11-20T16:28:15;52.33;;;46.38;;
44000;SDS011;29660;42.892;24.710;2022-11-20T16:33:19;63.47;;;53.53;;
44000;SDS011;29660;42.892;24.710;2022-11-20T16:38:22;86.25;;;76.90;;
44000;SDS011;29660;42.892;24.710;2022-11-20T16:43:24;100.82;;;90.20;;
44000;SDS011;29660;42.892;24.710;2022-11-20T16:48:26;102.68;;;91.90;;
44000;SDS011;29660;42.892;24.710;2022-11-20T16:53:28;113.15;;;100.95;;
44000;SDS011;29660;42.892;24.710;2022-11-20T16:58:30;142.15;;;127.40;;
44000;SDS011;29660;42.892;24.710;2022-11-20T17:03:32;100.05;;;89.47;;
44000;SDS011;29660;42.892;24.710;2022-11-20T17:08:33;99.07;;;85.78;;
44000;SDS011;29660;42.892;24.710;2022-11-20T17:13:36;99.72;;;87.50;;
44000;SDS011;29660;42.892;24.710;2022-11-20T17:18:41;144.90;;;128.43;;
44000;SDS011;29660;42.892;24.710;2022-11-20T17:23:45;141.18;;;124.90;;
44000;SDS011;29660;42.892;24.710;2022-11-20T17:28:54;155.80;;;138.57;;
44000;SDS011;29660;42.892;24.710;2022-11-20T17:34:01;177.88;;;155.10;;
44000;SDS011;29660;42.892;24.710;2022-11-20T17:39:03;108.78;;;91.60;;
44000;SDS011;29660;42.892;24.710;2022-11-20T17:44:08;160.23;;;137.52;;
44000;SDS011;29660;42.892;24.710;2022-11-20T17:49:11;138.18;;;117.78;;
44000;SDS011;29660;42.892;24.710;2022-11-20T17:54:13;80.78;;;67.25;;
44000;SDS011;29660;42.892;24.710;2022-11-20T17:59:15;88.78;;;78.38;;
44000;SDS011;29660;42.892;24.710;2022-11-20T18:04:19;102.07;;;85.60;;
44000;SDS011;29660;42.892;24.710;2022-11-20T18:09:22;81.25;;;65.97;;
44000;SDS011;29660;42.892;24.710;2022-11-20T18:14:24;54.28;;;46.70;;
44000;SDS011;29660;42.892;24.710;2022-11-20T18:19:34;64.53;;;56.47;;
44000;SDS011;29660;42.892;24.710;2022-11-20T18:24:45;47.72;;;40.65;;
44000;SDS011;29660;42.892;24.710;2022-11-20T18:29:47;52.00;;;43.90;;
44000;SDS011;29660;42.892;24.710;2022-11-20T18:34:52;55.92;;;43.22;;
44000;SDS011;29660;42.892;24.710;2022-11-20T18:39:54;50.50;;;41.45;;
44000;SDS011;29660;42.892;24.710;2022-11-20T18:44:57;54.45;;;46.70;;
44000;SDS011;29660;42.892;24.710;2022-11-20T18:50:00;70.30;;;54.95;;
44000;SDS011;29660;42.892;24.710;2022-11-20T18:55:03;46.75;;;35.95;;
44000;SDS011;29660;42.892;24.710;2022-11-20T19:00:06;56.92;;;40.00;;
44000;SDS011;29660;42.892;24.710;2022-11-20T19:05:10;80.20;;;61.17;;
44000;SDS011;29660;42.892;24.710;2022-11-20T19:10:16;75.38;;;56.10;;
44000;SDS011;29660;42.892;24.710;2022-11-20T19:15:23;88.57;;;77.90;;
44000;SDS011;29660;42.892;24.710;2022-11-20T19:20:25;128.38;;;109.40;;
44000;SDS011;29660;42.892;24.710;2022-11-20T19:25:29;106.03;;;89.07;;
44000;SDS011;29660;42.892;24.710;2022-11-20T19:30:37;92.65;;;82.28;;
44000;SDS011;29660;42.892;24.710;2022-11-20T19:35:39;86.97;;;74.40;;
44000;SDS011;29660;42.892;24.710;2022-11-20T19:40:41;67.28;;;58.50;;
44000;SDS011;29660;42.892;24.710;2022-11-20T19:45:43;79.15;;;65.95;;
44000;SDS011;29660;42.892;24.710;2022-11-20T19:50:45;86.35;;;67.82;;
44000;SDS011;29660;42.892;24.710;2022-11-20T19:55:57;50.58;;;41.70;;
44000;SDS011;29660;42.892;24.710;2022-11-20T20:01:06;26.88;;;21.80;;
44000;SDS011;29660;42.892;24.710;2022-11-20T20:06:11;50.35;;;43.90;;
44000;SDS011;29660;42.892;24.710;2022-11-20T20:11:34;50.20;;;43.42;;
44000;SDS011;29660;42.892;24.710;2022-11-20T20:16:38;94.43;;;83.85;;
44000;SDS011;29660;42.892;24.710;2022-11-20T20:21:41;89.38;;;79.60;;
44000;SDS011;29660;42.892;24.710;2022-11-20T20:26:44;91.25;;;77.90;;
44000;SDS011;29660;42.892;24.710;2022-11-20T20:31:46;59.92;;;53.40;;
44000;SDS011;29660;42.892;24.710;2022-11-20T20:36:49;71.78;;;59.83;;
44000;SDS011;29660;42.892;24.710;2022-11-20T20:41:51;77.32;;;64.03;;
44000;SDS011;29660;42.892;24.710;2022-11-20T20:46:53;75.70;;;66.90;;
44000;SDS011;29660;42.892;24.710;2022-11-20T20:51:55;76.03;;;65.82;;
44000;SDS011;29660;42.892;24.710;2022-11-20T20:56:57;144.65;;;126.28;;
44000;SDS011;29660;42.892;24.710;2022-11-20T21:01:59;83.85;;;72.70;;
44000;SDS011;29660;42.892;24.710;2022-11-20T21:07:01;75.60;;;67.30;;
44000;SDS011;29660;42.892;24.710;2022-11-20T21:12:03;56.28;;;50.33;;
44000;SDS011;29660;42.892;24.710;2022-11-20T21:17:06;81.82;;;73.43;;
44000;SDS011;29660;42.892;24.710;2022-11-20T21:22:12;91.10;;;81.47;;
44000;SDS011;29660;42.892;24.710;2022-11-20T21:27:14;84.55;;;73.20;;
44000;SDS011;29660;42.892;24.710;2022-11-20T21:32:16;86.65;;;76.97;;
44000;SDS011;29660;42.892;24.710;2022-11-20T21:37:18;78.25;;;69.72;;
44000;SDS011;29660;42.892;24.710;2022-11-20T21:42:20;81.68;;;70.00;;
44000;SDS011;29660;42.892;24.710;2022-11-20T21:47:22;72.20;;;61.20;;
44000;SDS011;29660;42.892;24.710;2022-11-20T21:52:24;62.67;;;50.50;;
44000;SDS011;29660;42.892;24.710;2022-11-20T21:57:25;74.57;;;65.60;;
44000;SDS011;29660;42.892;24.710;2022-11-20T22:02:27;59.92;;;53.53;;
44000;SDS011;29660;42.892;24.710;2022-11-20T22:07:29;62.13;;;55.70;;
44000;SDS011;29660;42.892;24.710;2022-11-20T22:12:31;73.32;;;63.10;;
44000;SDS011;29660;42.892;24.710;2022-11-20T22:17:33;87.63;;;76.65;;
44000;SDS011;29660;42.892;24.710;2022-11-20T22:22:53;74.90;;;64.18;;
44000;SDS011;29660;42.892;24.710;2022-11-20T22:27:55;78.97;;;68.18;;
44000;SDS011;29660;42.892;24.710;2022-11-20T22:32:57;85.75;;;72.50;;
44000;SDS011;29660;42.892;24.710;2022-11-20T22:37:59;67.20;;;58.78;;
44000;SDS011;29660;42.892;24.710;2022-11-20T22:43:01;63.53;;;49.92;;
44000;SDS011;29660;42.892;24.710;2022-11-20T22:48:03;66.70;;;52.63;;
44000;SDS011;29660;42.892;24.710;2022-11-20T22:53:05;63.67;;;52.63;;
44000;SDS011;29660;42.892;24.710;2022-11-20T22:58:07;69.60;;;54.25;;
44000;SDS011;29660;42.892;24.710;2022-11-20T23:03:09;65.70;;;53.88;;
44000;SDS011;29660;42.892;24.710;2022-11-20T23:08:11;55.35;;;46.55;;
44000;SDS011;29660;42.892;24.710;2022-11-20T23:13:13;63.65;;;55.15;;
44000;SDS011;29660;42.892;24.710;2022-11-20T23:18:15;70.15;;;57.75;;
44000;SDS011;29660;42.892;24.710;2022-11-20T23:23:17;60.38;;;51.67;;
44000;SDS011;29660;42.892;24.710;2022-11-20T23:28:19;52.45;;;44.90;;
44000;SDS011;29660;42.892;24.710;2022-11-20T23:33:21;40.47;;;35.00;;
44000;SDS011;29660;42.892;24.710;2022-11-20T23:38:23;38.90;;;34.50;;
44000;SDS011;29660;42.892;24.710;2022-11-20T23:43:25;38.58;;;34.38;;
44000;SDS011;29660;42.892;24.710;2022-11-20T23:48:28;37.60;;;31.60;;
44000;SDS011;29660;42.892;24.710;2022-11-20T23:53:32;27.83;;;24.02;;
44000;SDS011;29660;42.892;24.710;2022-11-20T23:58:35;34.42;;;29.27;;
